sensor_id;sensor_type;location;lat;lon;timestamp;temperature;humidity
11840;DHT22;5979;50.800;4.904;2023-02-28T00:02:21;1.20;99.90
11840;DHT22;5979;50.800;4.904;2023-02-28T00:04:47;1.20;99.90
11840;DHT22;5979;50.800;4.904;2023-02-28T00:07:18;1.10;99.90
11840;DHT22;5979;50.800;4.904;2023-02-28T00:09:44;1.10;99.90
11840;DHT22;5979;50.800;4.904;2023-02-28T00:12:10;1.00;99.90
11840;DHT22;5979;50.800;4.904;2023-02-28T00:14:36;1.00;99.90
11840;DHT22;5979;50.800;4.904;2023-02-28T00:17:02;1.10;99.90
11840;DHT22;5979;50.800;4.904;2023-02-28T00:19:27;1.10;99.90
11840;DHT22;5979;50.800;4.904;2023-02-28T00:21:53;1.10;99.90
11840;DHT22;5979;50.800;4.904;2023-02-28T00:24:19;1.10;99.90
11840;DHT22;5979;50.800;4.904;2023-02-28T00:26:44;1.00;99.90
11840;DHT22;5979;50.800;4.904;2023-02-28T00:29:10;1.00;99.90
11840;DHT22;5979;50.800;4.904;2023-02-28T00:31:36;1.00;99.90
11840;DHT22;5979;50.800;4.904;2023-02-28T00:34:01;1.00;99.90
11840;DHT22;5979;50.800;4.904;2023-02-28T00:36:27;1.00;99.90
11840;DHT22;5979;50.800;4.904;2023-02-28T00:38:52;1.00;99.90
11840;DHT22;5979;50.800;4.904;2023-02-28T00:41:18;1.00;99.90
11840;DHT22;5979;50.800;4.904;2023-02-28T00:43:44;0.90;99.90
11840;DHT22;5979;50.800;4.904;2023-02-28T00:46:10;0.90;99.90
11840;DHT22;5979;50.800;4.904;2023-02-28T00:48:36;0.90;99.90
11840;DHT22;5979;50.800;4.904;2023-02-28T00:51:02;0.80;99.90
11840;DHT22;5979;50.800;4.904;2023-02-28T00:53:28;0.80;99.90
11840;DHT22;5979;50.800;4.904;2023-02-28T00:55:54;0.80;99.90
11840;DHT22;5979;50.800;4.904;2023-02-28T00:58:20;0.80;99.90
11840;DHT22;5979;50.800;4.904;2023-02-28T01:00:45;0.70;99.90
11840;DHT22;5979;50.800;4.904;2023-02-28T01:03:16;0.70;99.90
11840;DHT22;5979;50.800;4.904;2023-02-28T01:05:42;0.80;99.90
11840;DHT22;5979;50.800;4.904;2023-02-28T01:08:07;0.80;99.90
11840;DHT22;5979;50.800;4.904;2023-02-28T01:10:33;0.80;99.90
11840;DHT22;5979;50.800;4.904;2023-02-28T01:12:59;0.70;99.90
11840;DHT22;5979;50.800;4.904;2023-02-28T01:15:25;0.60;99.90
11840;DHT22;5979;50.800;4.904;2023-02-28T01:17:50;0.70;99.90
11840;DHT22;5979;50.800;4.904;2023-02-28T01:20:16;0.70;99.90
11840;DHT22;5979;50.800;4.904;2023-02-28T01:22:42;0.70;99.90
11840;DHT22;5979;50.800;4.904;2023-02-28T01:25:08;0.60;99.90
11840;DHT22;5979;50.800;4.904;2023-02-28T01:27:33;0.50;99.90
11840;DHT22;5979;50.800;4.904;2023-02-28T01:29:59;0.50;99.90
11840;DHT22;5979;50.800;4.904;2023-02-28T01:32:25;0.50;99.90
11840;DHT22;5979;50.800;4.904;2023-02-28T01:34:50;0.60;99.90
11840;DHT22;5979;50.800;4.904;2023-02-28T01:37:16;0.50;99.90
11840;DHT22;5979;50.800;4.904;2023-02-28T01:39:41;0.50;99.90
11840;DHT22;5979;50.800;4.904;2023-02-28T01:42:09;0.50;99.90
11840;DHT22;5979;50.800;4.904;2023-02-28T01:47:42;0.50;99.90
11840;DHT22;5979;50.800;4.904;2023-02-28T01:50:13;0.40;99.90
11840;DHT22;5979;50.800;4.904;2023-02-28T01:52:40;0.40;99.90
11840;DHT22;5979;50.800;4.904;2023-02-28T01:55:08;0.30;99.90
11840;DHT22;5979;50.800;4.904;2023-02-28T01:57:38;0.40;99.90
11840;DHT22;5979;50.800;4.904;2023-02-28T02:00:15;0.40;99.90
11840;DHT22;5979;50.800;4.904;2023-02-28T02:02:46;0.30;99.90
11840;DHT22;5979;50.800;4.904;2023-02-28T02:05:23;0.30;99.90
11840;DHT22;5979;50.800;4.904;2023-02-28T02:07:55;0.30;99.90
11840;DHT22;5979;50.800;4.904;2023-02-28T02:18:40;0.30;99.90
11840;DHT22;5979;50.800;4.904;2023-02-28T02:29:47;0.10;99.90
11840;DHT22;5979;50.800;4.904;2023-02-28T02:37:56;0.10;99.90
11840;DHT22;5979;50.800;4.904;2023-02-28T02:40:29;0.10;99.90
11840;DHT22;5979;50.800;4.904;2023-02-28T02:43:01;0.10;99.90
11840;DHT22;5979;50.800;4.904;2023-02-28T02:45:33;0.10;99.90
11840;DHT22;5979;50.800;4.904;2023-02-28T02:48:05;0.10;99.90
11840;DHT22;5979;50.800;4.904;2023-02-28T02:50:42;0.10;99.90
11840;DHT22;5979;50.800;4.904;2023-02-28T02:53:09;0.10;99.90
11840;DHT22;5979;50.800;4.904;2023-02-28T02:55:40;0.00;99.90
11840;DHT22;5979;50.800;4.904;2023-02-28T02:58:11;-0.10;99.90
11840;DHT22;5979;50.800;4.904;2023-02-28T03:00:42;-0.10;99.90
11840;DHT22;5979;50.800;4.904;2023-02-28T03:03:10;-0.10;99.90
11840;DHT22;5979;50.800;4.904;2023-02-28T03:05:48;0.00;99.90
11840;DHT22;5979;50.800;4.904;2023-02-28T03:08:15;0.00;99.90
11840;DHT22;5979;50.800;4.904;2023-02-28T03:10:43;0.00;99.90
11840;DHT22;5979;50.800;4.904;2023-02-28T03:18:49;-0.10;99.90
11840;DHT22;5979;50.800;4.904;2023-02-28T03:24:19;-0.10;99.90
11840;DHT22;5979;50.800;4.904;2023-02-28T03:26:54;-0.10;99.90
11840;DHT22;5979;50.800;4.904;2023-02-28T03:29:32;-0.10;99.90
11840;DHT22;5979;50.800;4.904;2023-02-28T03:32:22;-0.20;99.90
11840;DHT22;5979;50.800;4.904;2023-02-28T03:37:25;-0.30;99.90
11840;DHT22;5979;50.800;4.904;2023-02-28T03:40:11;-0.30;99.90
11840;DHT22;5979;50.800;4.904;2023-02-28T03:42:40;-0.30;99.90
11840;DHT22;5979;50.800;4.904;2023-02-28T03:45:25;-0.30;99.90
11840;DHT22;5979;50.800;4.904;2023-02-28T03:48:02;-0.30;99.90
11840;DHT22;5979;50.800;4.904;2023-02-28T03:50:38;-0.30;99.90
11840;DHT22;5979;50.800;4.904;2023-02-28T03:53:07;-0.30;99.90
11840;DHT22;5979;50.800;4.904;2023-02-28T03:55:40;-0.40;99.90
11840;DHT22;5979;50.800;4.904;2023-02-28T03:58:24;-0.40;99.90
11840;DHT22;5979;50.800;4.904;2023-02-28T04:00:57;-0.40;99.90
11840;DHT22;5979;50.800;4.904;2023-02-28T04:03:24;-0.40;99.90
11840;DHT22;5979;50.800;4.904;2023-02-28T04:05:54;-0.40;99.90
11840;DHT22;5979;50.800;4.904;2023-02-28T04:08:21;-0.40;99.90
11840;DHT22;5979;50.800;4.904;2023-02-28T04:10:55;-0.40;99.90
11840;DHT22;5979;50.800;4.904;2023-02-28T04:13:22;-0.30;99.90
11840;DHT22;5979;50.800;4.904;2023-02-28T04:15:47;-0.30;99.90
11840;DHT22;5979;50.800;4.904;2023-02-28T04:18:13;-0.30;99.90
11840;DHT22;5979;50.800;4.904;2023-02-28T04:20:39;-0.20;99.90
11840;DHT22;5979;50.800;4.904;2023-02-28T04:23:04;-0.30;99.90
11840;DHT22;5979;50.800;4.904;2023-02-28T04:25:30;-0.20;99.90
11840;DHT22;5979;50.800;4.904;2023-02-28T04:27:55;-0.20;99.90
11840;DHT22;5979;50.800;4.904;2023-02-28T04:30:21;-0.20;99.90
11840;DHT22;5979;50.800;4.904;2023-02-28T04:32:47;-0.10;99.90
11840;DHT22;5979;50.800;4.904;2023-02-28T04:35:12;-0.10;99.90
11840;DHT22;5979;50.800;4.904;2023-02-28T04:37:38;-0.10;99.90
11840;DHT22;5979;50.800;4.904;2023-02-28T04:40:04;-0.10;99.90
11840;DHT22;5979;50.800;4.904;2023-02-28T04:42:30;0.00;99.90
11840;DHT22;5979;50.800;4.904;2023-02-28T04:45:02;0.00;99.90
11840;DHT22;5979;50.800;4.904;2023-02-28T04:47:28;0.00;99.90
11840;DHT22;5979;50.800;4.904;2023-02-28T04:49:53;-0.10;99.90
11840;DHT22;5979;50.800;4.904;2023-02-28T04:52:19;0.00;99.90
11840;DHT22;5979;50.800;4.904;2023-02-28T04:54:45;0.00;99.90
11840;DHT22;5979;50.800;4.904;2023-02-28T04:57:10;0.00;99.90
11840;DHT22;5979;50.800;4.904;2023-02-28T04:59:36;0.00;99.90
11840;DHT22;5979;50.800;4.904;2023-02-28T05:02:02;0.00;99.90
11840;DHT22;5979;50.800;4.904;2023-02-28T05:04:35;-0.10;99.90
11840;DHT22;5979;50.800;4.904;2023-02-28T05:07:02;-0.10;99.90
11840;DHT22;5979;50.800;4.904;2023-02-28T05:09:28;-0.10;99.90
11840;DHT22;5979;50.800;4.904;2023-02-28T05:11:55;-0.10;99.90
11840;DHT22;5979;50.800;4.904;2023-02-28T05:14:21;-0.20;99.90
11840;DHT22;5979;50.800;4.904;2023-02-28T05:16:46;-0.30;99.90
11840;DHT22;5979;50.800;4.904;2023-02-28T05:19:12;-0.20;99.90
11840;DHT22;5979;50.800;4.904;2023-02-28T05:21:48;-0.30;99.90
11840;DHT22;5979;50.800;4.904;2023-02-28T05:24:14;-0.40;99.90
11840;DHT22;5979;50.800;4.904;2023-02-28T05:26:42;-0.40;99.90
11840;DHT22;5979;50.800;4.904;2023-02-28T05:29:08;-0.50;99.90
11840;DHT22;5979;50.800;4.904;2023-02-28T05:31:34;-0.50;99.90
11840;DHT22;5979;50.800;4.904;2023-02-28T05:34:01;-0.50;99.90
11840;DHT22;5979;50.800;4.904;2023-02-28T05:36:26;-0.50;99.90
11840;DHT22;5979;50.800;4.904;2023-02-28T05:38:52;-0.60;99.90
11840;DHT22;5979;50.800;4.904;2023-02-28T05:41:19;-0.60;99.90
11840;DHT22;5979;50.800;4.904;2023-02-28T05:43:45;-0.60;99.90
11840;DHT22;5979;50.800;4.904;2023-02-28T05:46:11;-0.60;99.90
11840;DHT22;5979;50.800;4.904;2023-02-28T05:48:40;-0.60;99.90
11840;DHT22;5979;50.800;4.904;2023-02-28T05:51:06;-0.60;99.90
11840;DHT22;5979;50.800;4.904;2023-02-28T05:53:33;-0.70;99.90
11840;DHT22;5979;50.800;4.904;2023-02-28T05:55:59;-0.70;99.90
11840;DHT22;5979;50.800;4.904;2023-02-28T05:58:25;-0.70;99.90
11840;DHT22;5979;50.800;4.904;2023-02-28T06:00:54;-0.70;99.90
11840;DHT22;5979;50.800;4.904;2023-02-28T06:03:20;-0.80;99.90
11840;DHT22;5979;50.800;4.904;2023-02-28T06:05:45;-0.80;99.90
11840;DHT22;5979;50.800;4.904;2023-02-28T06:08:11;-0.80;99.90
11840;DHT22;5979;50.800;4.904;2023-02-28T06:10:37;-1.00;99.90
11840;DHT22;5979;50.800;4.904;2023-02-28T06:13:03;-1.00;99.90
11840;DHT22;5979;50.800;4.904;2023-02-28T06:15:29;-1.10;99.90
11840;DHT22;5979;50.800;4.904;2023-02-28T06:17:56;-1.20;99.90
11840;DHT22;5979;50.800;4.904;2023-02-28T06:20:23;-1.10;99.90
11840;DHT22;5979;50.800;4.904;2023-02-28T06:22:49;-1.10;99.90
11840;DHT22;5979;50.800;4.904;2023-02-28T06:25:19;-1.20;99.90
11840;DHT22;5979;50.800;4.904;2023-02-28T06:27:45;-1.20;99.90
11840;DHT22;5979;50.800;4.904;2023-02-28T06:30:11;-1.20;99.90
11840;DHT22;5979;50.800;4.904;2023-02-28T06:32:37;-1.20;99.90
11840;DHT22;5979;50.800;4.904;2023-02-28T06:35:03;-1.20;99.90
11840;DHT22;5979;50.800;4.904;2023-02-28T06:37:31;-1.20;99.90
11840;DHT22;5979;50.800;4.904;2023-02-28T06:39:57;-1.20;99.90
11840;DHT22;5979;50.800;4.904;2023-02-28T06:42:23;-1.20;99.90
11840;DHT22;5979;50.800;4.904;2023-02-28T06:44:57;-1.20;99.90
11840;DHT22;5979;50.800;4.904;2023-02-28T06:47:23;-1.10;99.90
11840;DHT22;5979;50.800;4.904;2023-02-28T06:49:49;-1.00;99.90
11840;DHT22;5979;50.800;4.904;2023-02-28T06:52:15;-1.00;99.90
11840;DHT22;5979;50.800;4.904;2023-02-28T06:54:41;-0.90;99.90
11840;DHT22;5979;50.800;4.904;2023-02-28T06:57:07;-0.70;99.90
11840;DHT22;5979;50.800;4.904;2023-02-28T06:59:32;-0.70;99.90
11840;DHT22;5979;50.800;4.904;2023-02-28T07:01:58;-0.60;99.90
11840;DHT22;5979;50.800;4.904;2023-02-28T07:04:24;-0.50;99.90
11840;DHT22;5979;50.800;4.904;2023-02-28T07:06:50;-0.40;99.90
11840;DHT22;5979;50.800;4.904;2023-02-28T07:09:15;-0.40;99.90
11840;DHT22;5979;50.800;4.904;2023-02-28T07:11:41;-0.30;99.90
11840;DHT22;5979;50.800;4.904;2023-02-28T07:14:08;-0.10;99.90
11840;DHT22;5979;50.800;4.904;2023-02-28T07:16:35;0.00;99.90
11840;DHT22;5979;50.800;4.904;2023-02-28T07:19:01;0.10;99.90
11840;DHT22;5979;50.800;4.904;2023-02-28T07:21:26;0.30;99.90
11840;DHT22;5979;50.800;4.904;2023-02-28T07:23:52;0.40;99.90
11840;DHT22;5979;50.800;4.904;2023-02-28T07:26:19;0.50;99.90
11840;DHT22;5979;50.800;4.904;2023-02-28T07:28:47;0.70;99.90
11840;DHT22;5979;50.800;4.904;2023-02-28T07:31:13;0.80;99.90
11840;DHT22;5979;50.800;4.904;2023-02-28T07:33:39;0.90;99.90
11840;DHT22;5979;50.800;4.904;2023-02-28T07:36:11;1.00;99.90
11840;DHT22;5979;50.800;4.904;2023-02-28T07:38:44;1.10;99.90
11840;DHT22;5979;50.800;4.904;2023-02-28T07:41:11;1.20;99.90
11840;DHT22;5979;50.800;4.904;2023-02-28T07:43:37;1.10;99.90
11840;DHT22;5979;50.800;4.904;2023-02-28T07:46:09;1.20;99.90
11840;DHT22;5979;50.800;4.904;2023-02-28T07:48:35;1.10;99.90
11840;DHT22;5979;50.800;4.904;2023-02-28T07:51:01;1.20;99.90
11840;DHT22;5979;50.800;4.904;2023-02-28T07:53:28;1.10;99.90
11840;DHT22;5979;50.800;4.904;2023-02-28T07:55:58;1.20;99.90
11840;DHT22;5979;50.800;4.904;2023-02-28T07:58:24;1.30;99.90
11840;DHT22;5979;50.800;4.904;2023-02-28T08:00:51;1.40;99.90
11840;DHT22;5979;50.800;4.904;2023-02-28T08:03:18;1.60;99.90
11840;DHT22;5979;50.800;4.904;2023-02-28T08:05:44;1.60;99.90
11840;DHT22;5979;50.800;4.904;2023-02-28T08:08:10;1.70;99.90
11840;DHT22;5979;50.800;4.904;2023-02-28T08:10:36;1.60;99.90
11840;DHT22;5979;50.800;4.904;2023-02-28T08:13:02;1.70;99.90
11840;DHT22;5979;50.800;4.904;2023-02-28T08:15:27;1.80;99.90
11840;DHT22;5979;50.800;4.904;2023-02-28T08:17:53;1.80;99.90
11840;DHT22;5979;50.800;4.904;2023-02-28T08:20:22;1.80;99.90
11840;DHT22;5979;50.800;4.904;2023-02-28T08:22:47;1.90;99.90
11840;DHT22;5979;50.800;4.904;2023-02-28T08:25:13;1.90;99.90
11840;DHT22;5979;50.800;4.904;2023-02-28T08:27:39;2.00;99.90
11840;DHT22;5979;50.800;4.904;2023-02-28T08:30:05;2.00;99.90
11840;DHT22;5979;50.800;4.904;2023-02-28T08:32:33;2.00;99.90
11840;DHT22;5979;50.800;4.904;2023-02-28T08:34:59;2.20;99.90
11840;DHT22;5979;50.800;4.904;2023-02-28T08:37:25;2.30;99.90
11840;DHT22;5979;50.800;4.904;2023-02-28T08:39:51;2.30;99.90
11840;DHT22;5979;50.800;4.904;2023-02-28T08:42:16;2.40;99.90
11840;DHT22;5979;50.800;4.904;2023-02-28T08:44:42;2.40;99.90
11840;DHT22;5979;50.800;4.904;2023-02-28T08:47:08;2.40;99.90
11840;DHT22;5979;50.800;4.904;2023-02-28T08:49:33;2.50;99.90
11840;DHT22;5979;50.800;4.904;2023-02-28T08:51:59;2.60;99.90
11840;DHT22;5979;50.800;4.904;2023-02-28T08:54:25;2.60;99.90
11840;DHT22;5979;50.800;4.904;2023-02-28T08:56:50;2.70;99.90
11840;DHT22;5979;50.800;4.904;2023-02-28T08:59:16;2.70;99.90
11840;DHT22;5979;50.800;4.904;2023-02-28T09:01:42;2.90;99.90
11840;DHT22;5979;50.800;4.904;2023-02-28T09:04:09;3.00;99.90
11840;DHT22;5979;50.800;4.904;2023-02-28T09:06:37;3.10;99.90
11840;DHT22;5979;50.800;4.904;2023-02-28T09:09:03;3.10;99.90
11840;DHT22;5979;50.800;4.904;2023-02-28T09:11:31;3.20;99.90
11840;DHT22;5979;50.800;4.904;2023-02-28T09:13:58;3.20;99.90
11840;DHT22;5979;50.800;4.904;2023-02-28T09:16:26;3.20;99.90
11840;DHT22;5979;50.800;4.904;2023-02-28T09:18:52;3.20;99.90
11840;DHT22;5979;50.800;4.904;2023-02-28T09:21:18;3.10;99.90
11840;DHT22;5979;50.800;4.904;2023-02-28T09:23:45;3.10;99.90
11840;DHT22;5979;50.800;4.904;2023-02-28T09:26:20;3.20;99.90
11840;DHT22;5979;50.800;4.904;2023-02-28T09:28:47;3.20;99.90
11840;DHT22;5979;50.800;4.904;2023-02-28T09:31:15;3.30;99.90
11840;DHT22;5979;50.800;4.904;2023-02-28T09:33:40;3.30;99.90
11840;DHT22;5979;50.800;4.904;2023-02-28T09:36:06;3.30;99.90
11840;DHT22;5979;50.800;4.904;2023-02-28T09:38:32;3.40;99.90
11840;DHT22;5979;50.800;4.904;2023-02-28T09:41:03;3.40;99.90
11840;DHT22;5979;50.800;4.904;2023-02-28T09:43:37;3.50;99.90
11840;DHT22;5979;50.800;4.904;2023-02-28T09:46:24;3.70;99.90
11840;DHT22;5979;50.800;4.904;2023-02-28T09:48:50;3.70;99.90
11840;DHT22;5979;50.800;4.904;2023-02-28T09:54:14;3.80;99.90
11840;DHT22;5979;50.800;4.904;2023-02-28T09:56:45;3.80;99.90
11840;DHT22;5979;50.800;4.904;2023-02-28T10:07:21;4.10;99.90
11840;DHT22;5979;50.800;4.904;2023-02-28T10:09:53;4.20;99.90
11840;DHT22;5979;50.800;4.904;2023-02-28T10:12:20;4.20;99.90
11840;DHT22;5979;50.800;4.904;2023-02-28T10:14:50;4.30;99.90
11840;DHT22;5979;50.800;4.904;2023-02-28T10:17:23;4.30;99.90
11840;DHT22;5979;50.800;4.904;2023-02-28T10:20:02;4.30;99.90
11840;DHT22;5979;50.800;4.904;2023-02-28T10:25:21;4.30;99.90
11840;DHT22;5979;50.800;4.904;2023-02-28T10:27:47;4.20;99.90
11840;DHT22;5979;50.800;4.904;2023-02-28T10:30:13;4.20;99.90
11840;DHT22;5979;50.800;4.904;2023-02-28T10:32:40;4.20;99.90
11840;DHT22;5979;50.800;4.904;2023-02-28T10:37:37;4.40;99.90
11840;DHT22;5979;50.800;4.904;2023-02-28T10:40:24;4.50;99.90
11840;DHT22;5979;50.800;4.904;2023-02-28T10:43:05;4.60;99.90
11840;DHT22;5979;50.800;4.904;2023-02-28T10:45:33;4.60;99.90
11840;DHT22;5979;50.800;4.904;2023-02-28T10:48:30;4.50;99.90
11840;DHT22;5979;50.800;4.904;2023-02-28T10:50:56;4.60;99.90
11840;DHT22;5979;50.800;4.904;2023-02-28T10:56:14;4.50;99.90
11840;DHT22;5979;50.800;4.904;2023-02-28T11:01:41;4.60;99.90
11840;DHT22;5979;50.800;4.904;2023-02-28T11:06:45;4.80;99.90
11840;DHT22;5979;50.800;4.904;2023-02-28T11:09:34;4.90;99.90
11840;DHT22;5979;50.800;4.904;2023-02-28T11:12:02;5.10;99.90
11840;DHT22;5979;50.800;4.904;2023-02-28T11:14:38;5.10;99.90
11840;DHT22;5979;50.800;4.904;2023-02-28T11:17:20;5.10;99.90
11840;DHT22;5979;50.800;4.904;2023-02-28T11:19:49;4.90;99.90
11840;DHT22;5979;50.800;4.904;2023-02-28T11:22:20;4.70;99.90
11840;DHT22;5979;50.800;4.904;2023-02-28T11:24:53;4.60;99.90
11840;DHT22;5979;50.800;4.904;2023-02-28T11:29:59;4.80;99.90
11840;DHT22;5979;50.800;4.904;2023-02-28T11:32:27;4.60;99.90
11840;DHT22;5979;50.800;4.904;2023-02-28T11:37:37;4.50;99.90
11840;DHT22;5979;50.800;4.904;2023-02-28T11:40:13;4.50;99.90
11840;DHT22;5979;50.800;4.904;2023-02-28T11:42:50;4.60;99.90
11840;DHT22;5979;50.800;4.904;2023-02-28T11:50:38;4.80;99.90
11840;DHT22;5979;50.800;4.904;2023-02-28T11:53:32;4.80;99.90
11840;DHT22;5979;50.800;4.904;2023-02-28T11:56:06;4.80;99.90
11840;DHT22;5979;50.800;4.904;2023-02-28T11:58:43;4.90;99.90
11840;DHT22;5979;50.800;4.904;2023-02-28T12:04:09;5.00;99.90
11840;DHT22;5979;50.800;4.904;2023-02-28T12:07:15;4.90;99.90
11840;DHT22;5979;50.800;4.904;2023-02-28T12:20:53;4.80;99.90
11840;DHT22;5979;50.800;4.904;2023-02-28T12:28:46;5.00;99.90
11840;DHT22;5979;50.800;4.904;2023-02-28T12:31:34;5.00;99.90
11840;DHT22;5979;50.800;4.904;2023-02-28T12:34:06;5.10;99.90
11840;DHT22;5979;50.800;4.904;2023-02-28T12:36:35;5.20;99.90
11840;DHT22;5979;50.800;4.904;2023-02-28T12:39:32;5.20;99.90
11840;DHT22;5979;50.800;4.904;2023-02-28T12:42:03;5.00;99.90
11840;DHT22;5979;50.800;4.904;2023-02-28T12:44:57;4.90;99.90
11840;DHT22;5979;50.800;4.904;2023-02-28T12:47:24;4.80;99.90
11840;DHT22;5979;50.800;4.904;2023-02-28T12:49:55;4.70;99.90
11840;DHT22;5979;50.800;4.904;2023-02-28T12:52:48;4.50;99.90
11840;DHT22;5979;50.800;4.904;2023-02-28T13:01:00;4.90;99.90
11840;DHT22;5979;50.800;4.904;2023-02-28T13:09:02;5.10;99.90
11840;DHT22;5979;50.800;4.904;2023-02-28T13:11:53;5.00;99.90
11840;DHT22;5979;50.800;4.904;2023-02-28T13:17:09;5.10;99.90
11840;DHT22;5979;50.800;4.904;2023-02-28T13:19:39;5.00;99.90
11840;DHT22;5979;50.800;4.904;2023-02-28T13:22:20;5.00;99.90
11840;DHT22;5979;50.800;4.904;2023-02-28T13:24:53;5.10;99.90
11840;DHT22;5979;50.800;4.904;2023-02-28T13:27:45;5.10;99.90
11840;DHT22;5979;50.800;4.904;2023-02-28T13:33:36;5.20;99.90
11840;DHT22;5979;50.800;4.904;2023-02-28T13:38:52;5.10;99.90
11840;DHT22;5979;50.800;4.904;2023-02-28T13:44:18;5.10;99.90
11840;DHT22;5979;50.800;4.904;2023-02-28T13:49:25;5.00;99.90
11840;DHT22;5979;50.800;4.904;2023-02-28T13:54:57;5.00;99.90
11840;DHT22;5979;50.800;4.904;2023-02-28T13:57:31;5.00;99.90
11840;DHT22;5979;50.800;4.904;2023-02-28T14:03:04;5.00;99.90
11840;DHT22;5979;50.800;4.904;2023-02-28T14:05:33;5.00;99.90
11840;DHT22;5979;50.800;4.904;2023-02-28T14:08:06;5.10;99.90
11840;DHT22;5979;50.800;4.904;2023-02-28T14:11:02;5.10;99.90
11840;DHT22;5979;50.800;4.904;2023-02-28T14:13:45;5.10;99.90
11840;DHT22;5979;50.800;4.904;2023-02-28T14:16:14;5.10;99.90
11840;DHT22;5979;50.800;4.904;2023-02-28T14:18:58;5.10;99.90
11840;DHT22;5979;50.800;4.904;2023-02-28T14:21:35;5.00;99.90
11840;DHT22;5979;50.800;4.904;2023-02-28T14:24:21;5.00;99.90
11840;DHT22;5979;50.800;4.904;2023-02-28T14:38:23;5.00;99.90
11840;DHT22;5979;50.800;4.904;2023-02-28T14:40:52;5.10;99.90
11840;DHT22;5979;50.800;4.904;2023-02-28T14:43:23;5.20;99.90
11840;DHT22;5979;50.800;4.904;2023-02-28T14:45:52;5.20;99.90
11840;DHT22;5979;50.800;4.904;2023-02-28T14:48:20;5.10;99.90
11840;DHT22;5979;50.800;4.904;2023-02-28T14:50:52;5.00;99.90
11840;DHT22;5979;50.800;4.904;2023-02-28T14:53:21;5.10;99.90
11840;DHT22;5979;50.800;4.904;2023-02-28T14:55:48;5.10;99.90
11840;DHT22;5979;50.800;4.904;2023-02-28T15:00:51;5.00;99.90
11840;DHT22;5979;50.800;4.904;2023-02-28T15:03:30;5.10;99.90
11840;DHT22;5979;50.800;4.904;2023-02-28T15:06:04;5.00;99.90
11840;DHT22;5979;50.800;4.904;2023-02-28T15:08:31;5.10;99.90
11840;DHT22;5979;50.800;4.904;2023-02-28T15:13:34;5.00;99.90
11840;DHT22;5979;50.800;4.904;2023-02-28T15:16:13;4.90;99.90
11840;DHT22;5979;50.800;4.904;2023-02-28T15:18:50;4.90;99.90
11840;DHT22;5979;50.800;4.904;2023-02-28T15:21:25;5.00;99.90
11840;DHT22;5979;50.800;4.904;2023-02-28T15:24:17;5.00;99.90
11840;DHT22;5979;50.800;4.904;2023-02-28T15:26:45;5.00;99.90
11840;DHT22;5979;50.800;4.904;2023-02-28T15:29:21;5.00;99.90
11840;DHT22;5979;50.800;4.904;2023-02-28T15:32:02;4.90;99.90
11840;DHT22;5979;50.800;4.904;2023-02-28T15:34:33;4.90;99.90
11840;DHT22;5979;50.800;4.904;2023-02-28T15:36:59;4.90;99.90
11840;DHT22;5979;50.800;4.904;2023-02-28T15:39:27;4.90;99.90
11840;DHT22;5979;50.800;4.904;2023-02-28T15:42:18;4.90;99.90
11840;DHT22;5979;50.800;4.904;2023-02-28T15:44:44;5.00;99.90
11840;DHT22;5979;50.800;4.904;2023-02-28T15:47:24;5.00;99.90
11840;DHT22;5979;50.800;4.904;2023-02-28T15:49:54;5.00;99.90
11840;DHT22;5979;50.800;4.904;2023-02-28T15:52:38;5.00;99.90
11840;DHT22;5979;50.800;4.904;2023-02-28T15:57:44;5.00;99.90
11840;DHT22;5979;50.800;4.904;2023-02-28T16:00:19;4.90;99.90
11840;DHT22;5979;50.800;4.904;2023-02-28T16:02:45;5.00;99.90
11840;DHT22;5979;50.800;4.904;2023-02-28T16:07:41;4.80;99.90
11840;DHT22;5979;50.800;4.904;2023-02-28T16:10:10;4.90;99.90
11840;DHT22;5979;50.800;4.904;2023-02-28T16:12:37;4.80;99.90
11840;DHT22;5979;50.800;4.904;2023-02-28T16:15:17;4.70;99.90
11840;DHT22;5979;50.800;4.904;2023-02-28T16:17:43;4.70;99.90
11840;DHT22;5979;50.800;4.904;2023-02-28T16:20:16;4.60;99.90
11840;DHT22;5979;50.800;4.904;2023-02-28T16:22:42;4.60;99.90
11840;DHT22;5979;50.800;4.904;2023-02-28T16:25:11;4.60;99.90
11840;DHT22;5979;50.800;4.904;2023-02-28T16:27:37;4.60;99.90
11840;DHT22;5979;50.800;4.904;2023-02-28T16:30:05;4.60;99.90
11840;DHT22;5979;50.800;4.904;2023-02-28T16:32:34;4.50;99.90
11840;DHT22;5979;50.800;4.904;2023-02-28T16:35:01;4.50;99.90
11840;DHT22;5979;50.800;4.904;2023-02-28T16:37:27;4.50;99.90
11840;DHT22;5979;50.800;4.904;2023-02-28T16:39:53;4.50;99.90
11840;DHT22;5979;50.800;4.904;2023-02-28T16:42:27;4.40;99.90
11840;DHT22;5979;50.800;4.904;2023-02-28T16:44:54;4.30;99.90
11840;DHT22;5979;50.800;4.904;2023-02-28T16:47:21;4.30;99.90
11840;DHT22;5979;50.800;4.904;2023-02-28T16:49:47;4.40;99.90
11840;DHT22;5979;50.800;4.904;2023-02-28T16:52:13;4.30;99.90
11840;DHT22;5979;50.800;4.904;2023-02-28T16:54:40;4.30;99.90
11840;DHT22;5979;50.800;4.904;2023-02-28T16:57:08;4.20;99.90
11840;DHT22;5979;50.800;4.904;2023-02-28T16:59:38;4.20;99.90
11840;DHT22;5979;50.800;4.904;2023-02-28T17:02:12;4.10;99.90
11840;DHT22;5979;50.800;4.904;2023-02-28T17:04:37;4.00;99.90
11840;DHT22;5979;50.800;4.904;2023-02-28T17:07:03;4.00;99.90
11840;DHT22;5979;50.800;4.904;2023-02-28T17:09:29;4.10;99.90
11840;DHT22;5979;50.800;4.904;2023-02-28T17:11:54;3.90;99.90
11840;DHT22;5979;50.800;4.904;2023-02-28T17:14:22;3.80;99.90
11840;DHT22;5979;50.800;4.904;2023-02-28T17:16:48;3.70;99.90
11840;DHT22;5979;50.800;4.904;2023-02-28T17:19:15;3.70;99.90
11840;DHT22;5979;50.800;4.904;2023-02-28T17:21:42;3.60;99.90
11840;DHT22;5979;50.800;4.904;2023-02-28T17:24:09;3.60;99.90
11840;DHT22;5979;50.800;4.904;2023-02-28T17:26:38;3.50;99.90
11840;DHT22;5979;50.800;4.904;2023-02-28T17:29:06;3.50;99.90
11840;DHT22;5979;50.800;4.904;2023-02-28T17:31:36;3.50;99.90
11840;DHT22;5979;50.800;4.904;2023-02-28T17:34:04;3.40;99.90
11840;DHT22;5979;50.800;4.904;2023-02-28T17:36:29;3.40;99.90
11840;DHT22;5979;50.800;4.904;2023-02-28T17:38:56;3.30;99.90
11840;DHT22;5979;50.800;4.904;2023-02-28T17:41:23;3.30;99.90
11840;DHT22;5979;50.800;4.904;2023-02-28T17:43:52;3.20;99.90
11840;DHT22;5979;50.800;4.904;2023-02-28T17:46:23;3.20;99.90
11840;DHT22;5979;50.800;4.904;2023-02-28T17:48:50;3.20;99.90
11840;DHT22;5979;50.800;4.904;2023-02-28T17:51:18;3.10;99.90
11840;DHT22;5979;50.800;4.904;2023-02-28T17:53:44;3.10;99.90
11840;DHT22;5979;50.800;4.904;2023-02-28T17:56:23;3.10;99.90
11840;DHT22;5979;50.800;4.904;2023-02-28T17:58:52;3.10;99.90
11840;DHT22;5979;50.800;4.904;2023-02-28T18:01:18;3.00;99.90
11840;DHT22;5979;50.800;4.904;2023-02-28T18:03:46;2.90;99.90
11840;DHT22;5979;50.800;4.904;2023-02-28T18:06:37;2.80;99.90
11840;DHT22;5979;50.800;4.904;2023-02-28T18:09:15;2.80;99.90
11840;DHT22;5979;50.800;4.904;2023-02-28T18:11:41;2.80;99.90
11840;DHT22;5979;50.800;4.904;2023-02-28T18:14:09;2.80;99.90
11840;DHT22;5979;50.800;4.904;2023-02-28T18:16:34;2.70;99.90
11840;DHT22;5979;50.800;4.904;2023-02-28T18:19:00;2.60;99.90
11840;DHT22;5979;50.800;4.904;2023-02-28T18:21:29;2.50;99.90
11840;DHT22;5979;50.800;4.904;2023-02-28T18:23:55;2.40;99.90
11840;DHT22;5979;50.800;4.904;2023-02-28T18:26:21;2.30;99.90
11840;DHT22;5979;50.800;4.904;2023-02-28T18:28:47;2.20;99.90
11840;DHT22;5979;50.800;4.904;2023-02-28T18:31:17;2.20;99.90
11840;DHT22;5979;50.800;4.904;2023-02-28T18:33:47;2.10;99.90
11840;DHT22;5979;50.800;4.904;2023-02-28T18:36:13;2.10;99.90
11840;DHT22;5979;50.800;4.904;2023-02-28T18:38:39;2.10;99.90